AirNav   Pilot Hours Calculator
 
 971 users online  

AZ99 Phoenix Children's Hospital Heliport
Phoenix, Arizona, USA

GOING TO PHOENIX?


FAA INFORMATION EFFECTIVE 08 SEPTEMBER 2022

Location

FAA Identifier: AZ99
Lat/Long: 33-28-42.8200N 112-02-29.4000W
33-28.713667N 112-02.490000W
33.4785611,-112.0415000
(estimated)
Elevation: 1312.5 ft. / 400 m (estimated)
Variation: 12E (2000)
From city: 1 mile NE of PHOENIX, AZ
Time zone: UTC -7 (year round; does not observe DST)
Zip code: 85016

Heliport Operations

Heliport use: Private use. Permission required prior to landing
Activation date: 08/2003
Control tower: no
ARTCC: ALBUQUERQUE CENTER
FSS: PRESCOTT FLIGHT SERVICE STATION
Attendance: UNATNDD
Wind indicator: lighted
Segmented circle: no
Lights: FOR PERIMETER AND FLOOD LGTS CALL 602-933-5500.
Beacon: white-green-yellow (heliport)
FOR ROTG BEACON CALL 602-933-5500.

Heliport Communications

WX ASOS at PHX (3 nm SE): PHONE 602-231-8557
WX ASOS at SDL (11 nm NE): PHONE 480-483-3049
WX ASOS at DVT (13 nm N): 126.5 (623-587-7764)
WX AWOS-3 at GEU (13 nm W): PHONE 623-877-8609
WX ASOS at FFZ (16 nm E): PHONE 480-641-4111
WX AWOS-3PT at CHD (17 nm SE): PHONE 480-814-9952

Nearby radio navigation aids

VOR radial/distance  VOR name  Freq  Var
PXRr295/4.5PHOENIX VORTAC115.6012E
IWAr285/22.2WILLIE VORTAC113.3013E
TFDr337/36.2STANFIELD VORTAC114.8012E
BXKr074/39.2BUCKEYE VORTAC110.6014E

Heliport Services

Runway Information

Helipad H1

Dimensions: 46 x 46 ft. / 14 x 14 m
Surface: ROOF/TOP
ALUM DECK W/ NON-SLIP COATING.
Runway edge lights: PERI
PERIMETER AND FLOOD LGTS AVBL, HIGH GREEN.
Operational restrictions: H1 IS PRIMARY HELIPAD, LOCATED ATOP HOSPITAL BLDG, 180 FT AGL.
Latitude: 33-28.745793N
Longitude: 112-02.523750W
Elevation: 1312.0 ft.
Traffic pattern: leftleft

Helipad H2

Dimensions: 40 x 40 ft. / 12 x 12 m
Surface: ROOF/TOP
Runway edge lights: PERI
PERIMETER AND FLOOD LGTS AVBL.
Operational restrictions: H2 IS SECONDARY HELIPAD, LOCATED ATOP PARKING GARAGE, 54 FT AGL.
Latitude: 33-28.744167N
Longitude: 112-02.538000W
Elevation: 1129.0 ft.
Traffic pattern: leftleft

Heliport Ownership and Management from official FAA records

Ownership: Privately-owned
Owner: PHOENIX CHILDREN'S HOSPITAL
1919 EAST THOMAS RD
PHOENIX, AZ 85016
Phone 602-933-1000
Manager: CRAIG M CROSBY
1919 EAST THOMAS RD
PHOENIX, AZ 85016
Phone 602-933-1564

Additional Remarks

FOR CD CTC PHOENIX APCH AT 602-306-2565.

Instrument Procedures

There are no published instrument procedures at AZ99.

Some nearby airports with instrument procedures:

KPHX - Phoenix Sky Harbor International Airport (3 nm SE)
KSDL - Scottsdale Airport (11 nm NE)
P19 - Stellar Airpark (12 nm SE)
KDVT - Phoenix Deer Valley Airport (13 nm N)
KGEU - Glendale Municipal Airport (13 nm W)
KFFZ - Falcon Field Airport (16 nm E)
KGYR - Phoenix Goodyear Airport (17 nm W)
KCHD - Chandler Municipal Airport (17 nm SE)
KLUF - Luke Air Force Base (17 nm W)
 
Loc | Ops | Rwys | IFR | FBO | Links
Com | Nav | Svcs | Stats | Notes
Area around AZ99 (Phoenix Children's Hospital Heliport)
 
Road maps at: MapQuest Bing Google
 
Aerial photo
No photo
 
Sectional chart

 
Airport distance calculator
Flying to Phoenix Children's Hospital Heliport? Find the distance to fly.

From to AZ99

Sunrise and sunset
Times for 02-Oct-2022
 Local
(UTC-7)
 Zulu
(UTC)
Morning civil twilight05:5912:59
Sunrise06:2413:24
Sunset18:1101:11
Evening civil twilight18:3601:36

Current date and time
Zulu (UTC)  02-Oct-2022 22:29:16
Local (UTC-7)  02-Oct-2022 15:29:16
 
METAR
KPHX 
3nm S 
022151Z 17010G15KT 10SM FEW100 SCT250 36/11 A2983 RMK AO2 SLP079 CB DSNT NW-N TCU DSNT SE T03560111 $
KSDL 
10nm NE 
022153Z 25008KT 10SM CLR 34/11 A2987 RMK AO2 SLP088 T03390111
KDVT 
12nm N 
022153Z 29004KT 10SM CLR 33/12 A2986 RMK AO2 SLP085 T03330117
KGEU 
13nm W 
022158Z VRB04KT 10SM SCT100 35/12 A2983
KFFZ 
16nm E 
022154Z AUTO 21011G17KT 10SM CLR 35/11 A2985 RMK AO2 SLP083 T03500106
KLUF 
16nm W 
022155Z AUTO 16004KT 10SM CLR 35/12 A2983 RMK AO2 SLP085 T03510115 $
KGYR 
17nm W 
022147Z VRB06KT 10SM SCT100 SCT250 35/14 A2986
KCHD 
17nm SE 
022147Z 00000KT 10SM FEW100 35/12 A2985
TAF
KPHX 
3nm S 
021720Z 0218/0324 16007KT P6SM FEW100 FEW150 FM022200 21007KT P6SM FEW100 FEW150 FM030000 25006KT P6SM FEW100 FEW150 FM030400 10005KT P6SM FEW100 SCT150 SCT250 FM031700 14008KT P6SM FEW100 FEW150 FM032100 28008KT P6SM FEW100 FEW150
KSDL 
10nm NE 
021720Z 0218/0318 VRB04KT P6SM FEW100 FEW150 FM022100 21007KT P6SM FEW100 FEW150 FM030300 04005KT P6SM FEW100 SCT150 SCT250 FM030800 VRB03KT P6SM FEW100 FEW150
KDVT 
12nm N 
021720Z 0218/0318 18008KT P6SM FEW100 FEW150 FM022200 23009KT P6SM FEW100 FEW150 FM030400 03008KT P6SM FEW100 SCT150 SCT250 FM030900 VRB04KT P6SM FEW100 FEW150
NOTAMs
Click for the latest NOTAMs
NOTAMs are issued by the DoD/FAA and will open in a separate window not controlled by AirNav.

 

 
 

Would you like to see your business listed on this page?

 If your business provides an interesting product or service to pilots, flight crews, aircraft, or users of the Phoenix Children's Hospital Heliport, you should consider listing it here.  To start the listing process, click on the button below
 
Add a business
 

Other Pages about Phoenix Children's Hospital Heliport

Update a link
 
Copyright © AirNav, LLC. All rights reserved. Privacy Policy  Contact